NOZ22R ENGM-LPFR
Flight info
| Callsign | NOZ22R |
|---|---|
| Flight time | N/A |
| Altitude | 35000 |
| Route | VIPPA DCT ELKOP DCT NERDO DCT DOROR/N0462F340 DCT AGISU DCT PAM/N0465F330 N872 WOODY/N0465F340 DCT NIK/N0465F330 DCT KOVIN DCT DUCRA DCT RESMI/N0464F350 DCT DEKOD DCT DISAK DCT ARKIP DCT ARNAV DCT LMG DCT UVELI DCT OSMOB DCT VAVIX DCT BTZ DCT URUNA DCT SSN DCT VRA DCT NEA L14 ADINO DCT RAKOD DCT ELVAR DCT SOTEX |
| Aircraft | B738/M-SDE2E3FGHIRWXY/LB1 |
Departure
| Time | N/A |
|---|---|
| Airport | Oslo-Gardermoen International Airport (ENGM) |
Arrival
| Time | 2026-05-03 21:37 |
|---|---|
| Airport | Faro - Gago Coutinho International Airport (LPFR) |
| Time | Latitude | Longitude | Altitude | Speed | Heading |
|---|---|---|---|---|---|
| 2026-05-03 20:42 | 41.34002 | -4.78574 | 34986 ft | 406 kts | 224° |
| 2026-05-03 20:42 | 41.29887 | -4.83655 | 34985 ft | 406 kts | 224° |
| 2026-05-03 20:43 | 41.25746 | -4.88758 | 34992 ft | 406 kts | 224° |
| 2026-05-03 20:43 | 41.21605 | -4.93852 | 34984 ft | 406 kts | 225° |
| 2026-05-03 20:44 | 41.17461 | -4.98941 | 34996 ft | 405 kts | 224° |
| 2026-05-03 20:44 | 41.13320 | -5.04017 | 34997 ft | 405 kts | 224° |
| 2026-05-03 20:45 | 41.09175 | -5.09088 | 34995 ft | 405 kts | 224° |
| 2026-05-03 20:45 | 41.05033 | -5.14147 | 34997 ft | 405 kts | 224° |
| 2026-05-03 20:46 | 41.00906 | -5.19177 | 34978 ft | 405 kts | 225° |
| 2026-05-03 20:46 | 40.96760 | -5.24223 | 35009 ft | 405 kts | 225° |
| 2026-05-03 20:47 | 40.92611 | -5.29264 | 35021 ft | 405 kts | 224° |
| 2026-05-03 20:47 | 40.88460 | -5.34297 | 35032 ft | 405 kts | 224° |
| 2026-05-03 20:48 | 40.84327 | -5.39300 | 35019 ft | 405 kts | 224° |
| 2026-05-03 20:48 | 40.80165 | -5.44329 | 35013 ft | 405 kts | 224° |
| 2026-05-03 20:49 | 40.76004 | -5.49347 | 35000 ft | 405 kts | 224° |
| 2026-05-03 20:49 | 40.71845 | -5.54355 | 35007 ft | 405 kts | 224° |
| 2026-05-03 20:50 | 40.67680 | -5.59361 | 35014 ft | 405 kts | 224° |
| 2026-05-03 20:50 | 40.63510 | -5.64365 | 35011 ft | 405 kts | 224° |
| 2026-05-03 20:51 | 40.59336 | -5.69364 | 35007 ft | 406 kts | 224° |
| 2026-05-03 20:51 | 40.55161 | -5.74355 | 35020 ft | 406 kts | 224° |
| 2026-05-03 20:52 | 40.50982 | -5.79343 | 35014 ft | 406 kts | 224° |
| 2026-05-03 20:52 | 40.46799 | -5.84327 | 35005 ft | 406 kts | 224° |
| 2026-05-03 20:53 | 40.42647 | -5.89265 | 35007 ft | 405 kts | 224° |
| 2026-05-03 20:53 | 40.38470 | -5.94224 | 35003 ft | 405 kts | 224° |
| 2026-05-03 20:54 | 40.34283 | -5.99185 | 34999 ft | 405 kts | 224° |
| 2026-05-03 20:54 | 40.28006 | -6.06609 | 34988 ft | 405 kts | 224° |
| 2026-05-03 20:55 | 40.23818 | -6.11551 | 35002 ft | 405 kts | 224° |
| 2026-05-03 20:55 | 40.19634 | -6.16479 | 34999 ft | 404 kts | 224° |
| 2026-05-03 20:56 | 40.15490 | -6.21354 | 34992 ft | 403 kts | 224° |
| 2026-05-03 20:56 | 40.11312 | -6.26259 | 34994 ft | 403 kts | 224° |
| 2026-05-03 20:57 | 40.02832 | -6.36190 | 34990 ft | 402 kts | 224° |
| 2026-05-03 20:58 | 39.98599 | -6.40961 | 34992 ft | 403 kts | 222° |
| 2026-05-03 20:58 | 39.94253 | -6.45584 | 34991 ft | 403 kts | 222° |
| 2026-05-03 20:59 | 39.89908 | -6.50222 | 35001 ft | 404 kts | 222° |
| 2026-05-03 20:59 | 39.85576 | -6.54875 | 34995 ft | 404 kts | 223° |
| 2026-05-03 21:00 | 39.82708 | -6.57957 | 34989 ft | 403 kts | 223° |
| 2026-05-03 21:00 | 39.76944 | -6.64134 | 34997 ft | 403 kts | 223° |
| 2026-05-03 21:01 | 39.72608 | -6.68757 | 34995 ft | 403 kts | 223° |
| 2026-05-03 21:01 | 39.68267 | -6.73377 | 35000 ft | 403 kts | 223° |
| 2026-05-03 21:02 | 39.63923 | -6.77995 | 35008 ft | 403 kts | 223° |
| 2026-05-03 21:02 | 39.59582 | -6.82604 | 34982 ft | 403 kts | 223° |
| 2026-05-03 21:03 | 39.55271 | -6.87174 | 35012 ft | 403 kts | 223° |
| 2026-05-03 21:03 | 39.50930 | -6.91768 | 35011 ft | 403 kts | 223° |
| 2026-05-03 21:04 | 39.46589 | -6.96355 | 35015 ft | 403 kts | 223° |
| 2026-05-03 21:04 | 39.42245 | -7.00936 | 35017 ft | 403 kts | 223° |
| 2026-05-03 21:05 | 39.37898 | -7.05514 | 35018 ft | 403 kts | 223° |
| 2026-05-03 21:05 | 39.33550 | -7.10084 | 35015 ft | 401 kts | 223° |
| 2026-05-03 21:06 | 39.29951 | -7.13864 | 35020 ft | 401 kts | 223° |
| 2026-05-03 21:06 | 39.24909 | -7.19142 | 35023 ft | 401 kts | 221° |
| 2026-05-03 21:07 | 39.20870 | -7.22275 | 35044 ft | 408 kts | 211° |
| 2026-05-03 21:07 | 39.15428 | -7.24661 | 35036 ft | 417 kts | 201° |
| 2026-05-03 21:08 | 39.09793 | -7.26594 | 34659 ft | 420 kts | 201° |
| 2026-05-03 21:08 | 39.06983 | -7.27558 | 34387 ft | 416 kts | 202° |
| 2026-05-03 21:08 | 39.04192 | -7.28518 | 34102 ft | 412 kts | 202° |
| 2026-05-03 21:09 | 39.01424 | -7.29478 | 33793 ft | 413 kts | 202° |
| 2026-05-03 21:09 | 38.98686 | -7.30434 | 33476 ft | 413 kts | 202° |
| 2026-05-03 21:09 | 38.95909 | -7.31404 | 33163 ft | 414 kts | 202° |
| 2026-05-03 21:09 | 38.93128 | -7.32377 | 32845 ft | 414 kts | 202° |
| 2026-05-03 21:10 | 38.90342 | -7.33350 | 32540 ft | 415 kts | 202° |
| 2026-05-03 21:10 | 38.87549 | -7.34325 | 32183 ft | 416 kts | 202° |
| 2026-05-03 21:10 | 38.84750 | -7.35301 | 31881 ft | 417 kts | 202° |
| 2026-05-03 21:10 | 38.81946 | -7.36277 | 31578 ft | 418 kts | 202° |
| 2026-05-03 21:11 | 38.79135 | -7.37255 | 31285 ft | 419 kts | 202° |
| 2026-05-03 21:11 | 38.76341 | -7.38224 | 30986 ft | 412 kts | 202° |
| 2026-05-03 21:11 | 38.73607 | -7.39167 | 30681 ft | 404 kts | 202° |
| 2026-05-03 21:11 | 38.70909 | -7.40099 | 30389 ft | 398 kts | 202° |
| 2026-05-03 21:12 | 38.68242 | -7.41024 | 30106 ft | 397 kts | 202° |
| 2026-05-03 21:12 | 38.65578 | -7.41949 | 29747 ft | 396 kts | 202° |
| 2026-05-03 21:12 | 38.62921 | -7.42872 | 29450 ft | 395 kts | 202° |
| 2026-05-03 21:12 | 38.60278 | -7.43787 | 29188 ft | 393 kts | 202° |
| 2026-05-03 21:13 | 38.57640 | -7.44700 | 28913 ft | 391 kts | 202° |
| 2026-05-03 21:13 | 38.55009 | -7.45609 | 28630 ft | 390 kts | 202° |
| 2026-05-03 21:13 | 38.52423 | -7.46502 | 28364 ft | 389 kts | 202° |
| 2026-05-03 21:13 | 38.49805 | -7.47406 | 28103 ft | 389 kts | 202° |
| 2026-05-03 21:14 | 38.47197 | -7.48305 | 27837 ft | 388 kts | 202° |
| 2026-05-03 21:14 | 38.44589 | -7.49204 | 27556 ft | 388 kts | 201° |
| 2026-05-03 21:14 | 38.41978 | -7.50103 | 27185 ft | 385 kts | 201° |
| 2026-05-03 21:14 | 38.39404 | -7.50984 | 26772 ft | 378 kts | 202° |
| 2026-05-03 21:15 | 38.36878 | -7.51849 | 26389 ft | 373 kts | 202° |
| 2026-05-03 21:15 | 38.34421 | -7.52692 | 26019 ft | 367 kts | 202° |
| 2026-05-03 21:15 | 38.31938 | -7.53543 | 25643 ft | 362 kts | 201° |
| 2026-05-03 21:15 | 38.29554 | -7.54361 | 25290 ft | 358 kts | 201° |
| 2026-05-03 21:16 | 38.27158 | -7.55184 | 24926 ft | 354 kts | 201° |
| 2026-05-03 21:16 | 38.24783 | -7.55998 | 24575 ft | 351 kts | 201° |
| 2026-05-03 21:16 | 38.22436 | -7.56802 | 24227 ft | 347 kts | 201° |
| 2026-05-03 21:16 | 38.20114 | -7.57598 | 23891 ft | 346 kts | 201° |
| 2026-05-03 21:17 | 38.17781 | -7.58398 | 23527 ft | 348 kts | 201° |
| 2026-05-03 21:17 | 38.16198 | -7.58941 | 23256 ft | 351 kts | 201° |
| 2026-05-03 21:17 | 38.13073 | -7.60009 | 22712 ft | 351 kts | 201° |
| 2026-05-03 21:17 | 38.10711 | -7.60813 | 22293 ft | 350 kts | 200° |
| 2026-05-03 21:18 | 38.08328 | -7.61507 | 21855 ft | 354 kts | 192° |
| 2026-05-03 21:18 | 38.05853 | -7.61630 | 21461 ft | 357 kts | 186° |
| 2026-05-03 21:18 | 38.03394 | -7.61606 | 21052 ft | 357 kts | 185° |
| 2026-05-03 21:18 | 38.00915 | -7.61559 | 20651 ft | 356 kts | 185° |
| 2026-05-03 21:19 | 37.98441 | -7.61517 | 20253 ft | 355 kts | 185° |
| 2026-05-03 21:19 | 37.95978 | -7.61487 | 19867 ft | 354 kts | 185° |
| 2026-05-03 21:19 | 37.93517 | -7.61470 | 19458 ft | 352 kts | 185° |
| 2026-05-03 21:19 | 37.91068 | -7.61460 | 19081 ft | 352 kts | 185° |
| 2026-05-03 21:20 | 37.88632 | -7.61455 | 18701 ft | 349 kts | 185° |
| 2026-05-03 21:20 | 37.86207 | -7.61453 | 18319 ft | 346 kts | 185° |
| 2026-05-03 21:20 | 37.83800 | -7.61452 | 17895 ft | 344 kts | 185° |
| 2026-05-03 21:20 | 37.81416 | -7.61453 | 17468 ft | 341 kts | 185° |
| 2026-05-03 21:21 | 37.79050 | -7.61476 | 17050 ft | 338 kts | 187° |
| 2026-05-03 21:21 | 37.76714 | -7.61615 | 16695 ft | 333 kts | 188° |
| 2026-05-03 21:21 | 37.74448 | -7.61796 | 16417 ft | 328 kts | 188° |
| 2026-05-03 21:21 | 37.72185 | -7.61985 | 16108 ft | 323 kts | 188° |
| 2026-05-03 21:22 | 37.69952 | -7.62170 | 15790 ft | 319 kts | 188° |
| 2026-05-03 21:22 | 37.67748 | -7.62346 | 15519 ft | 316 kts | 188° |
| 2026-05-03 21:22 | 37.65566 | -7.62517 | 15249 ft | 313 kts | 188° |
| 2026-05-03 21:22 | 37.63398 | -7.62684 | 14977 ft | 311 kts | 188° |
| 2026-05-03 21:23 | 37.61241 | -7.62847 | 14667 ft | 309 kts | 188° |
| 2026-05-03 21:23 | 37.59094 | -7.63009 | 14331 ft | 308 kts | 188° |
| 2026-05-03 21:23 | 37.56959 | -7.63168 | 14004 ft | 307 kts | 188° |
| 2026-05-03 21:23 | 37.54836 | -7.63325 | 13646 ft | 305 kts | 187° |
| 2026-05-03 21:24 | 37.52721 | -7.63481 | 13263 ft | 304 kts | 187° |
| 2026-05-03 21:24 | 37.50609 | -7.63637 | 12877 ft | 303 kts | 187° |
| 2026-05-03 21:24 | 37.48502 | -7.63793 | 12493 ft | 303 kts | 187° |
| 2026-05-03 21:24 | 37.46432 | -7.63945 | 12099 ft | 302 kts | 187° |
| 2026-05-03 21:25 | 37.44336 | -7.64099 | 11719 ft | 302 kts | 187° |
| 2026-05-03 21:25 | 37.42216 | -7.64255 | 11348 ft | 301 kts | 187° |
| 2026-05-03 21:25 | 37.40157 | -7.64405 | 10972 ft | 297 kts | 187° |
| 2026-05-03 21:25 | 37.38105 | -7.64555 | 10608 ft | 292 kts | 187° |
| 2026-05-03 21:26 | 37.36091 | -7.64701 | 10255 ft | 287 kts | 187° |
| 2026-05-03 21:26 | 37.34119 | -7.64844 | 9916 ft | 282 kts | 187° |
| 2026-05-03 21:26 | 37.32182 | -7.64986 | 9538 ft | 275 kts | 186° |
| 2026-05-03 21:26 | 37.30286 | -7.65124 | 9164 ft | 270 kts | 186° |
| 2026-05-03 21:27 | 37.28435 | -7.65259 | 8815 ft | 264 kts | 186° |
| 2026-05-03 21:27 | 37.26623 | -7.65392 | 8498 ft | 257 kts | 186° |
| 2026-05-03 21:27 | 37.24852 | -7.65520 | 8185 ft | 253 kts | 186° |
| 2026-05-03 21:27 | 37.23104 | -7.65648 | 7897 ft | 251 kts | 186° |
| 2026-05-03 21:28 | 37.21365 | -7.65777 | 7614 ft | 250 kts | 186° |
| 2026-05-03 21:28 | 37.19632 | -7.65904 | 7353 ft | 249 kts | 187° |
| 2026-05-03 21:28 | 37.17900 | -7.66031 | 7078 ft | 248 kts | 186° |
| 2026-05-03 21:28 | 37.16177 | -7.66156 | 6815 ft | 248 kts | 185° |
| 2026-05-03 21:29 | 37.14457 | -7.66282 | 6570 ft | 245 kts | 185° |
| 2026-05-03 21:29 | 37.12793 | -7.66403 | 6311 ft | 241 kts | 185° |
| 2026-05-03 21:29 | 37.11133 | -7.66523 | 6048 ft | 237 kts | 185° |
| 2026-05-03 21:29 | 37.09493 | -7.66642 | 5808 ft | 234 kts | 186° |
| 2026-05-03 21:30 | 37.07896 | -7.66758 | 5581 ft | 227 kts | 187° |
| 2026-05-03 21:30 | 37.06334 | -7.66871 | 5312 ft | 223 kts | 187° |
| 2026-05-03 21:30 | 37.04804 | -7.66983 | 5053 ft | 218 kts | 186° |
| 2026-05-03 21:30 | 37.03296 | -7.67091 | 4793 ft | 216 kts | 187° |
| 2026-05-03 21:31 | 37.01801 | -7.67202 | 4535 ft | 215 kts | 186° |
| 2026-05-03 21:31 | 37.00311 | -7.67309 | 4274 ft | 214 kts | 187° |
| 2026-05-03 21:31 | 36.98860 | -7.67604 | 4034 ft | 209 kts | 210° |
| 2026-05-03 21:31 | 36.97933 | -7.68863 | 4024 ft | 195 kts | 255° |
| 2026-05-03 21:32 | 36.97900 | -7.70497 | 4004 ft | 188 kts | 277° |
| 2026-05-03 21:32 | 36.98049 | -7.72124 | 3775 ft | 189 kts | 279° |
| 2026-05-03 21:32 | 36.98241 | -7.73718 | 3520 ft | 181 kts | 281° |
| 2026-05-03 21:32 | 36.98448 | -7.75242 | 3290 ft | 174 kts | 281° |
| 2026-05-03 21:33 | 36.98652 | -7.76710 | 3058 ft | 168 kts | 281° |
| 2026-05-03 21:33 | 36.98850 | -7.78128 | 2824 ft | 162 kts | 282° |
| 2026-05-03 21:33 | 36.99042 | -7.79505 | 2641 ft | 162 kts | 283° |
| 2026-05-03 21:33 | 36.99236 | -7.80890 | 2409 ft | 158 kts | 283° |
| 2026-05-03 21:34 | 36.99418 | -7.82198 | 2182 ft | 148 kts | 284° |
| 2026-05-03 21:34 | 36.99594 | -7.83455 | 2002 ft | 144 kts | 283° |
| 2026-05-03 21:34 | 36.99769 | -7.84695 | 1810 ft | 147 kts | 283° |
| 2026-05-03 21:34 | 36.99944 | -7.85948 | 1614 ft | 144 kts | 283° |
| 2026-05-03 21:35 | 37.00114 | -7.87159 | 1410 ft | 138 kts | 283° |
| 2026-05-03 21:35 | 37.00279 | -7.88333 | 1237 ft | 138 kts | 282° |
| 2026-05-03 21:35 | 37.00443 | -7.89498 | 1048 ft | 138 kts | 281° |
| 2026-05-03 21:35 | 37.00614 | -7.90682 | 897 ft | 138 kts | 281° |
| 2026-05-03 21:36 | 37.00802 | -7.91855 | 720 ft | 140 kts | 280° |
| 2026-05-03 21:36 | 37.00956 | -7.93065 | 510 ft | 141 kts | 279° |
| 2026-05-03 21:36 | 37.01115 | -7.94264 | 348 ft | 139 kts | 281° |
| 2026-05-03 21:36 | 37.01278 | -7.95436 | 126 ft | 132 kts | 281° |
| 2026-05-03 21:37 | 37.01435 | -7.96519 | 24 ft | 118 kts | 280° |
| 2026-05-03 21:37 | 37.01543 | -7.97286 | 20 ft | 59 kts | 280° |
| 2026-05-03 21:37 | 37.01592 | -7.97645 | 18 ft | 36 kts | 279° |
| 2026-05-03 21:37 | 37.01636 | -7.97845 | 21 ft | 18 kts | 322° |
| 2026-05-03 21:38 | 37.01733 | -7.97789 | 19 ft | 17 kts | 60° |
| 2026-05-03 21:38 | 37.01751 | -7.97737 | 20 ft | 1 kts | 69° |
| 2026-05-03 21:38 | 37.01752 | -7.97731 | 20 ft | 1 kts | 69° |
| 2026-05-03 21:38 | 37.01754 | -7.97726 | 19 ft | 1 kts | 69° |
| 2026-05-03 21:39 | 37.01758 | -7.97715 | 19 ft | 2 kts | 68° |
| 2026-05-03 21:39 | 37.01765 | -7.97682 | 19 ft | 5 kts | 82° |
| 2026-05-03 21:39 | 37.01770 | -7.97621 | 19 ft | 9 kts | 86° |
| 2026-05-03 21:39 | 37.01762 | -7.97534 | 19 ft | 11 kts | 100° |
| 2026-05-03 21:40 | 37.01749 | -7.97443 | 19 ft | 10 kts | 100° |
| 2026-05-03 21:40 | 37.01736 | -7.97350 | 19 ft | 12 kts | 100° |
| 2026-05-03 21:40 | 37.01721 | -7.97244 | 19 ft | 12 kts | 101° |
| 2026-05-03 21:40 | 37.01705 | -7.97139 | 19 ft | 12 kts | 101° |
| 2026-05-03 21:41 | 37.01691 | -7.97037 | 19 ft | 12 kts | 100° |
| 2026-05-03 21:41 | 37.01682 | -7.96938 | 19 ft | 11 kts | 75° |
| 2026-05-03 21:41 | 37.01749 | -7.96898 | 21 ft | 11 kts | 9° |
| 2026-05-03 21:41 | 37.01820 | -7.96869 | 19 ft | 11 kts | 49° |
| 2026-05-03 21:42 | 37.01821 | -7.96778 | 19 ft | 11 kts | 99° |
| 2026-05-03 21:42 | 37.01809 | -7.96689 | 19 ft | 10 kts | 99° |
| 2026-05-03 21:42 | 37.01846 | -7.96631 | 19 ft | 10 kts | 11° |
| 2026-05-03 21:42 | 37.01880 | -7.96624 | 21 ft | 2 kts | 10° |
| 2026-05-03 21:43 | 37.01886 | -7.96622 | 20 ft | 0 kts | 10° |